Language selection

Features

My Weather Profile Weather Topics  | 

Atlantic - Newfoundland: Past 24 Hour Conditions

 

St. Anthony Airport

05:30 PM NST 17 January 2020
Disclaimer

This table is a summary of hourly weather conditions for the past 24 hours.
Please note that these observations might not always be representative of weather conditions over their associated marine area.

Date / Time
(NST)
Wind(knots) Conditions Visibility(km) Pressure(kPa) Air tempC) Relative humidity(%) Dew pointC) Wind Chill
17 January 2020
17:30 N 29 gust 35 Haze 8 100.6 -15 66 -20 -29
16:30 N 25 gust 31 Cloudy 16 100.6 -16 61 -22 -29
15:30 N 27 gust 33 Haze 5 100.6 -17 61 -23 -31
14:30 N 25 gust 35 Haze 10 100.7 -18 62 -23 -32
13:30 N 22 gust 32 Haze 6 101.0 -18 62 -24 -31
12:30 N 21 gust 28 Haze 5 101.1 -18 74 -21 -31
11:30 N 18 gust 23 Sunny 16 101.2 -18 62 -24 -30
10:30 NNW 16 Mainly Sunny 16 101.2 -19 70 -23 -31
9:30 NNW 17 gust 23 Sunny 16 101.2 -19 68 -23 -31
8:30 NNW 11 Partly Cloudy 16 101.2 -20 75 -23 -30
7:30 NNW 15 gust 20 Light Snow 6 101.2 -19 77 -22 -31
6:30 NNW 15 Haze 10 101.1 -18 76 -21 -29
5:30 N 11 Mostly Cloudy 16 101.1 -17 73 -21 -27
4:30 NNW 9 Cloudy 16 101.0 -16 71 -20 -24
3:30 N 9 Mostly Cloudy 16 101.0 -16 72 -20 -25
2:30 NNW 7 Cloudy 16 101.0 -17 77 -20 -25
1:30 NNW 5 Mostly Cloudy 16 100.9 -16 75 -20 -22
0:30 NW 7 Mostly Cloudy 16 100.9 -18 80 -21 -26
16 January 2020
23:30 W 7 Mostly Cloudy 16 101.0 -18 82 -21 -26
22:30 SW 6 Mostly Cloudy 16 101.0 -17 80 -20 -24
21:30 W 6 Mainly Clear 16 101.0 -17 84 -19 -24
20:30 W 5 Clear 16 101.0 -18 87 -19 -24
19:30 SW 7 Clear 16 101.0 -17 85 -19 -24
18:30 SSW 7 Light Snow 16 101.0 -15 85 -17 -23
17:30 SSW 5 Mainly Clear 16 101.0 -14 82 -17 -20

Zoom-in to make a selection

Map of Atlantic - Newfoundland marine weather areas Banquereau - 44139 Blanc-Sablon Airport Cap Whittle Chevery Natashquan Airport Heath Point Îles de la Madeleine Airport Miscou Island Eskasoni (First Nations) Grand Étang Ingonish Beach North Mountain St.Paul Island J.A. Douglas McCurdy Sydney Airport Charlottetown Airport East Point North Cape Argentia Bonavista Burgeo Cape Race Corner Brook Daniel's Harbour Englee Ferolle Point La Scie Port aux Basques Rocky Harbour Sagona Island St. Anthony Airport St. John's Int'l Airport St. Lawrence Stephenville Airport Twillingate Winterland Branch Hill Wreckhouse Grates Cove Pool's Island Marticot Island Long Pond Cartwright Airport Mary's Harbour
Legend:
buoy Buoy
land station Land Station

Atlantic - Newfoundland Area

Another Region

What we are doing

Date modified: